DLH029 EDDH-EDDS
Flight info
| Callsign | DLH029 |
|---|---|
| Flight time | 0h 59m |
| Altitude | 33000 |
| Route | IDEKO7G IDEKO N850 NIE DCT BERXO DCT SILWE DCT OSBIT P605 TOSTU T726 LBU DCT |
| Aircraft | A319/M-VGDW/C |
Departure
| Time | 2026-04-26 18:53 |
|---|---|
| Airport | Hamburg Helmut Schmidt Airport (EDDH) |
Arrival
| Time | 2026-04-26 19:52 |
|---|---|
| Airport | Stuttgart Airport (EDDS) |
| Time | Latitude | Longitude | Altitude | Speed | Heading |
|---|---|---|---|---|---|
| 2026-04-26 18:23 | 53.63415 | 10.00341 | 51 ft | 0 kts | 85° |
| 2026-04-26 18:29 | 53.63415 | 10.00340 | 51 ft | 0 kts | 85° |
| 2026-04-26 18:41 | 53.63415 | 10.00339 | 51 ft | 1 kts | 85° |
| 2026-04-26 18:42 | 53.63414 | 10.00314 | 51 ft | 3 kts | 89° |
| 2026-04-26 18:42 | 53.63415 | 10.00280 | 51 ft | 3 kts | 99° |
| 2026-04-26 18:42 | 53.63420 | 10.00248 | 51 ft | 3 kts | 118° |
| 2026-04-26 18:42 | 53.63431 | 10.00225 | 49 ft | 3 kts | 158° |
| 2026-04-26 18:43 | 53.63438 | 10.00220 | 46 ft | 0 kts | 176° |
| 2026-04-26 18:45 | 53.63434 | 10.00218 | 46 ft | 3 kts | 193° |
| 2026-04-26 18:45 | 53.63389 | 10.00199 | 51 ft | 11 kts | 195° |
| 2026-04-26 18:45 | 53.63293 | 10.00179 | 51 ft | 17 kts | 178° |
| 2026-04-26 18:46 | 53.63157 | 10.00188 | 49 ft | 21 kts | 176° |
| 2026-04-26 18:46 | 53.63029 | 10.00135 | 51 ft | 18 kts | 207° |
| 2026-04-26 18:46 | 53.62944 | 10.00049 | 49 ft | 12 kts | 217° |
| 2026-04-26 18:46 | 53.62919 | 9.99986 | 50 ft | 0 kts | 243° |
| 2026-04-26 18:48 | 53.62918 | 9.99982 | 50 ft | 2 kts | 243° |
| 2026-04-26 18:48 | 53.62900 | 9.99924 | 50 ft | 9 kts | 243° |
| 2026-04-26 18:48 | 53.62868 | 9.99816 | 50 ft | 11 kts | 248° |
| 2026-04-26 18:49 | 53.62903 | 9.99714 | 50 ft | 11 kts | 323° |
| 2026-04-26 18:49 | 53.62923 | 9.99695 | 50 ft | 0 kts | 334° |
| 2026-04-26 18:51 | 53.62924 | 9.99695 | 50 ft | 0 kts | 334° |
| 2026-04-26 18:52 | 53.62958 | 9.99667 | 49 ft | 24 kts | 334° |
| 2026-04-26 18:52 | 53.63163 | 9.99491 | 50 ft | 74 kts | 332° |
| 2026-04-26 18:52 | 53.63820 | 9.98913 | 48 ft | 136 kts | 332° |
| 2026-04-26 18:52 | 53.64771 | 9.98084 | 306 ft | 161 kts | 332° |
| 2026-04-26 18:53 | 53.65786 | 9.97208 | 849 ft | 167 kts | 332° |
| 2026-04-26 18:53 | 53.66832 | 9.96299 | 1454 ft | 175 kts | 331° |
| 2026-04-26 18:53 | 53.67992 | 9.95273 | 1735 ft | 200 kts | 330° |
| 2026-04-26 18:53 | 53.69294 | 9.94094 | 2127 ft | 221 kts | 329° |
| 2026-04-26 18:54 | 53.70588 | 9.92753 | 3098 ft | 216 kts | 316° |
| 2026-04-26 18:54 | 53.71346 | 9.90619 | 3865 ft | 219 kts | 280° |
| 2026-04-26 18:54 | 53.71174 | 9.87986 | 4248 ft | 243 kts | 250° |
| 2026-04-26 18:54 | 53.70394 | 9.85248 | 4653 ft | 268 kts | 245° |
| 2026-04-26 18:55 | 53.69679 | 9.82400 | 5798 ft | 262 kts | 245° |
| 2026-04-26 18:55 | 53.68486 | 9.80055 | 6692 ft | 272 kts | 218° |
| 2026-04-26 18:55 | 53.66729 | 9.78754 | 7503 ft | 282 kts | 198° |
| 2026-04-26 18:55 | 53.64825 | 9.77829 | 8313 ft | 287 kts | 199° |
| 2026-04-26 18:56 | 53.62893 | 9.76872 | 9116 ft | 292 kts | 199° |
| 2026-04-26 18:56 | 53.60924 | 9.75881 | 9901 ft | 298 kts | 200° |
| 2026-04-26 18:56 | 53.58941 | 9.74876 | 10570 ft | 307 kts | 200° |
| 2026-04-26 18:56 | 53.56814 | 9.73797 | 10820 ft | 331 kts | 199° |
| 2026-04-26 18:57 | 53.54548 | 9.72647 | 11223 ft | 346 kts | 199° |
| 2026-04-26 18:57 | 53.53007 | 9.71866 | 11659 ft | 351 kts | 199° |
| 2026-04-26 18:57 | 53.49858 | 9.70266 | 12629 ft | 356 kts | 199° |
| 2026-04-26 18:57 | 53.47471 | 9.69055 | 13365 ft | 360 kts | 199° |
| 2026-04-26 18:58 | 53.45059 | 9.67834 | 14084 ft | 364 kts | 199° |
| 2026-04-26 18:58 | 53.42628 | 9.66608 | 14734 ft | 367 kts | 199° |
| 2026-04-26 18:58 | 53.40166 | 9.65373 | 15388 ft | 370 kts | 200° |
| 2026-04-26 18:58 | 53.37696 | 9.64136 | 16046 ft | 372 kts | 200° |
| 2026-04-26 18:59 | 53.35199 | 9.62886 | 16702 ft | 375 kts | 200° |
| 2026-04-26 18:59 | 53.32693 | 9.61629 | 17368 ft | 377 kts | 200° |
| 2026-04-26 18:59 | 53.30205 | 9.60384 | 18005 ft | 380 kts | 200° |
| 2026-04-26 18:59 | 53.27665 | 9.59109 | 18642 ft | 382 kts | 200° |
| 2026-04-26 19:00 | 53.25078 | 9.57809 | 19202 ft | 385 kts | 200° |
| 2026-04-26 19:00 | 53.22535 | 9.56533 | 19745 ft | 388 kts | 200° |
| 2026-04-26 19:00 | 53.19941 | 9.55238 | 20303 ft | 391 kts | 200° |
| 2026-04-26 19:00 | 53.17323 | 9.53938 | 20861 ft | 393 kts | 200° |
| 2026-04-26 19:01 | 53.14691 | 9.52633 | 21408 ft | 396 kts | 200° |
| 2026-04-26 19:01 | 53.12039 | 9.51318 | 21956 ft | 399 kts | 200° |
| 2026-04-26 19:01 | 53.09371 | 9.49993 | 22504 ft | 401 kts | 200° |
| 2026-04-26 19:01 | 53.06685 | 9.48660 | 23035 ft | 404 kts | 200° |
| 2026-04-26 19:02 | 53.03981 | 9.47319 | 23549 ft | 407 kts | 200° |
| 2026-04-26 19:02 | 53.01257 | 9.45973 | 24019 ft | 410 kts | 200° |
| 2026-04-26 19:02 | 52.98472 | 9.44851 | 24243 ft | 415 kts | 192° |
| 2026-04-26 19:02 | 52.96579 | 9.44430 | 24281 ft | 415 kts | 191° |
| 2026-04-26 19:03 | 52.92746 | 9.43615 | 24306 ft | 415 kts | 191° |
| 2026-04-26 19:03 | 52.89880 | 9.43005 | 24300 ft | 415 kts | 191° |
| 2026-04-26 19:03 | 52.87014 | 9.42397 | 24284 ft | 415 kts | 191° |
| 2026-04-26 19:03 | 52.84150 | 9.41794 | 24301 ft | 415 kts | 191° |
| 2026-04-26 19:04 | 52.81281 | 9.41184 | 24299 ft | 415 kts | 191° |
| 2026-04-26 19:04 | 52.78426 | 9.40574 | 24301 ft | 415 kts | 191° |
| 2026-04-26 19:04 | 52.75558 | 9.39962 | 24301 ft | 415 kts | 191° |
| 2026-04-26 19:04 | 52.72734 | 9.39360 | 24301 ft | 415 kts | 191° |
| 2026-04-26 19:05 | 52.67017 | 9.38155 | 24300 ft | 415 kts | 191° |
| 2026-04-26 19:05 | 52.64138 | 9.37659 | 24300 ft | 417 kts | 186° |
| 2026-04-26 19:05 | 52.61223 | 9.37860 | 24297 ft | 421 kts | 176° |
| 2026-04-26 19:06 | 52.58342 | 9.38800 | 24303 ft | 423 kts | 170° |
| 2026-04-26 19:06 | 52.55474 | 9.39886 | 24300 ft | 423 kts | 170° |
| 2026-04-26 19:06 | 52.52604 | 9.40970 | 24305 ft | 424 kts | 170° |
| 2026-04-26 19:06 | 52.49718 | 9.42051 | 24685 ft | 426 kts | 170° |
| 2026-04-26 19:07 | 52.46816 | 9.43130 | 25116 ft | 429 kts | 170° |
| 2026-04-26 19:07 | 52.43899 | 9.44215 | 25532 ft | 431 kts | 170° |
| 2026-04-26 19:07 | 52.40966 | 9.45304 | 25933 ft | 433 kts | 171° |
| 2026-04-26 19:07 | 52.38017 | 9.46398 | 26307 ft | 436 kts | 170° |
| 2026-04-26 19:08 | 52.35049 | 9.47497 | 26673 ft | 439 kts | 171° |
| 2026-04-26 19:08 | 52.32067 | 9.48602 | 27049 ft | 441 kts | 171° |
| 2026-04-26 19:08 | 52.29064 | 9.49716 | 27432 ft | 444 kts | 171° |
| 2026-04-26 19:08 | 52.26044 | 9.50836 | 27811 ft | 446 kts | 171° |
| 2026-04-26 19:09 | 52.23007 | 9.51960 | 28185 ft | 449 kts | 171° |
| 2026-04-26 19:09 | 52.19953 | 9.53089 | 28549 ft | 451 kts | 171° |
| 2026-04-26 19:09 | 52.16916 | 9.54208 | 28920 ft | 454 kts | 171° |
| 2026-04-26 19:09 | 52.13835 | 9.55341 | 29270 ft | 456 kts | 171° |
| 2026-04-26 19:10 | 52.10724 | 9.56485 | 29565 ft | 459 kts | 170° |
| 2026-04-26 19:10 | 52.07595 | 9.57630 | 29889 ft | 462 kts | 171° |
| 2026-04-26 19:10 | 52.04448 | 9.58778 | 30207 ft | 465 kts | 171° |
| 2026-04-26 19:10 | 52.01287 | 9.59934 | 30389 ft | 467 kts | 170° |
| 2026-04-26 19:11 | 51.98106 | 9.61103 | 30671 ft | 469 kts | 170° |
| 2026-04-26 19:11 | 51.94916 | 9.62276 | 30939 ft | 471 kts | 170° |
| 2026-04-26 19:11 | 51.91709 | 9.63450 | 31200 ft | 474 kts | 171° |
| 2026-04-26 19:11 | 51.88486 | 9.64621 | 31441 ft | 476 kts | 170° |
| 2026-04-26 19:12 | 51.85244 | 9.65795 | 31685 ft | 479 kts | 170° |
| 2026-04-26 19:12 | 51.81994 | 9.66969 | 32027 ft | 478 kts | 170° |
| 2026-04-26 19:12 | 51.78746 | 9.68142 | 32383 ft | 478 kts | 170° |
| 2026-04-26 19:12 | 51.75499 | 9.69313 | 32739 ft | 478 kts | 170° |
| 2026-04-26 19:13 | 51.72246 | 9.70487 | 33088 ft | 478 kts | 170° |
| 2026-04-26 19:13 | 51.69041 | 9.71644 | 33270 ft | 477 kts | 170° |
| 2026-04-26 19:13 | 51.65841 | 9.72803 | 33287 ft | 467 kts | 170° |
| 2026-04-26 19:14 | 51.59545 | 9.75071 | 33283 ft | 462 kts | 170° |
| 2026-04-26 19:14 | 51.53268 | 9.77315 | 33287 ft | 461 kts | 170° |
| 2026-04-26 19:15 | 51.47001 | 9.79559 | 33275 ft | 461 kts | 170° |
| 2026-04-26 19:15 | 51.40734 | 9.81786 | 33290 ft | 461 kts | 170° |
| 2026-04-26 19:16 | 51.34457 | 9.84003 | 33277 ft | 461 kts | 170° |
| 2026-04-26 19:16 | 51.28189 | 9.86223 | 33279 ft | 461 kts | 170° |
| 2026-04-26 19:17 | 51.21927 | 9.87976 | 33279 ft | 457 kts | 181° |
| 2026-04-26 19:17 | 51.15620 | 9.87607 | 33256 ft | 453 kts | 187° |
| 2026-04-26 19:18 | 51.09310 | 9.87037 | 33260 ft | 454 kts | 186° |
| 2026-04-26 19:18 | 51.03001 | 9.86508 | 33264 ft | 454 kts | 186° |
| 2026-04-26 19:19 | 50.96690 | 9.85978 | 33272 ft | 454 kts | 186° |
| 2026-04-26 19:19 | 50.90378 | 9.85437 | 33265 ft | 454 kts | 186° |
| 2026-04-26 19:20 | 50.84067 | 9.84888 | 33262 ft | 454 kts | 186° |
| 2026-04-26 19:20 | 50.77756 | 9.84336 | 33267 ft | 454 kts | 186° |
| 2026-04-26 19:21 | 50.71438 | 9.83785 | 33270 ft | 454 kts | 186° |
| 2026-04-26 19:21 | 50.65168 | 9.83242 | 33282 ft | 454 kts | 186° |
| 2026-04-26 19:22 | 50.58856 | 9.82699 | 33294 ft | 453 kts | 186° |
| 2026-04-26 19:22 | 50.52556 | 9.82167 | 33293 ft | 452 kts | 186° |
| 2026-04-26 19:23 | 50.46247 | 9.81626 | 32208 ft | 461 kts | 186° |
| 2026-04-26 19:23 | 50.43003 | 9.81342 | 31082 ft | 471 kts | 186° |
| 2026-04-26 19:23 | 50.39755 | 9.81067 | 30688 ft | 462 kts | 186° |
| 2026-04-26 19:23 | 50.36552 | 9.80800 | 29955 ft | 461 kts | 186° |
| 2026-04-26 19:24 | 50.33412 | 9.80538 | 29515 ft | 453 kts | 186° |
| 2026-04-26 19:24 | 50.30241 | 9.80269 | 28901 ft | 449 kts | 186° |
| 2026-04-26 19:24 | 50.24083 | 9.79746 | 27923 ft | 437 kts | 185° |
| 2026-04-26 19:25 | 50.21097 | 9.79500 | 27452 ft | 432 kts | 185° |
| 2026-04-26 19:25 | 50.19084 | 9.79333 | 27135 ft | 428 kts | 185° |
| 2026-04-26 19:25 | 50.15139 | 9.79005 | 26525 ft | 421 kts | 185° |
| 2026-04-26 19:25 | 50.12289 | 9.78605 | 26251 ft | 409 kts | 194° |
| 2026-04-26 19:26 | 50.09566 | 9.77611 | 26160 ft | 396 kts | 197° |
| 2026-04-26 19:26 | 50.06931 | 9.76625 | 26077 ft | 383 kts | 197° |
| 2026-04-26 19:26 | 50.04379 | 9.75672 | 25982 ft | 371 kts | 197° |
| 2026-04-26 19:26 | 50.01890 | 9.74740 | 25902 ft | 369 kts | 197° |
| 2026-04-26 19:27 | 49.99369 | 9.73791 | 25113 ft | 379 kts | 196° |
| 2026-04-26 19:27 | 49.96777 | 9.72812 | 24538 ft | 385 kts | 196° |
| 2026-04-26 19:27 | 49.94163 | 9.71829 | 24341 ft | 388 kts | 196° |
| 2026-04-26 19:27 | 49.91541 | 9.70845 | 24237 ft | 387 kts | 196° |
| 2026-04-26 19:28 | 49.88911 | 9.69859 | 24260 ft | 388 kts | 196° |
| 2026-04-26 19:28 | 49.86282 | 9.68878 | 24262 ft | 389 kts | 196° |
| 2026-04-26 19:28 | 49.83653 | 9.67892 | 24261 ft | 389 kts | 196° |
| 2026-04-26 19:28 | 49.81025 | 9.66905 | 24260 ft | 389 kts | 196° |
| 2026-04-26 19:29 | 49.78402 | 9.65923 | 24258 ft | 389 kts | 196° |
| 2026-04-26 19:29 | 49.75763 | 9.64939 | 24260 ft | 389 kts | 196° |
| 2026-04-26 19:29 | 49.73133 | 9.63962 | 24259 ft | 390 kts | 196° |
| 2026-04-26 19:29 | 49.70496 | 9.62981 | 24258 ft | 390 kts | 196° |
| 2026-04-26 19:30 | 49.67890 | 9.62012 | 24258 ft | 389 kts | 196° |
| 2026-04-26 19:30 | 49.65246 | 9.61027 | 23856 ft | 392 kts | 196° |
| 2026-04-26 19:30 | 49.62593 | 9.60041 | 23239 ft | 391 kts | 196° |
| 2026-04-26 19:30 | 49.60814 | 9.59382 | 22815 ft | 389 kts | 196° |
| 2026-04-26 19:31 | 49.57345 | 9.58101 | 22000 ft | 384 kts | 195° |
| 2026-04-26 19:31 | 49.54755 | 9.57146 | 21392 ft | 381 kts | 195° |
| 2026-04-26 19:31 | 49.52206 | 9.56206 | 20804 ft | 373 kts | 195° |
| 2026-04-26 19:31 | 49.49691 | 9.55284 | 20233 ft | 369 kts | 195° |
| 2026-04-26 19:32 | 49.47212 | 9.54378 | 19673 ft | 365 kts | 195° |
| 2026-04-26 19:32 | 49.44745 | 9.53473 | 19123 ft | 365 kts | 195° |
| 2026-04-26 19:32 | 49.42261 | 9.52558 | 18578 ft | 367 kts | 195° |
| 2026-04-26 19:32 | 49.39825 | 9.51662 | 17956 ft | 362 kts | 195° |
| 2026-04-26 19:33 | 49.37367 | 9.50760 | 17336 ft | 356 kts | 195° |
| 2026-04-26 19:33 | 49.34994 | 9.49890 | 16755 ft | 356 kts | 195° |
| 2026-04-26 19:33 | 49.32576 | 9.49005 | 16171 ft | 358 kts | 195° |
| 2026-04-26 19:33 | 49.30151 | 9.48118 | 15583 ft | 357 kts | 195° |
| 2026-04-26 19:34 | 49.27742 | 9.47237 | 15013 ft | 353 kts | 195° |
| 2026-04-26 19:34 | 49.25375 | 9.46377 | 14461 ft | 347 kts | 195° |
| 2026-04-26 19:34 | 49.23041 | 9.45530 | 13892 ft | 341 kts | 195° |
| 2026-04-26 19:34 | 49.20812 | 9.44492 | 13280 ft | 331 kts | 208° |
| 2026-04-26 19:35 | 49.18834 | 9.42762 | 12690 ft | 324 kts | 213° |
| 2026-04-26 19:35 | 49.16947 | 9.40978 | 12308 ft | 311 kts | 214° |
| 2026-04-26 19:35 | 49.15142 | 9.39271 | 12237 ft | 301 kts | 214° |
| 2026-04-26 19:35 | 49.13364 | 9.37589 | 12236 ft | 300 kts | 214° |
| 2026-04-26 19:36 | 49.11593 | 9.35915 | 12239 ft | 299 kts | 214° |
| 2026-04-26 19:36 | 49.11020 | 9.35374 | 12240 ft | 299 kts | 214° |
| 2026-04-26 19:36 | 49.08064 | 9.32580 | 11947 ft | 297 kts | 214° |
| 2026-04-26 19:36 | 49.06311 | 9.30928 | 11606 ft | 295 kts | 214° |
| 2026-04-26 19:37 | 49.04587 | 9.29305 | 11262 ft | 294 kts | 214° |
| 2026-04-26 19:37 | 49.02851 | 9.27675 | 10927 ft | 292 kts | 214° |
| 2026-04-26 19:37 | 49.01127 | 9.26050 | 10546 ft | 292 kts | 214° |
| 2026-04-26 19:37 | 48.99398 | 9.24416 | 10201 ft | 291 kts | 214° |
| 2026-04-26 19:38 | 48.97679 | 9.22796 | 9816 ft | 290 kts | 214° |
| 2026-04-26 19:38 | 48.95970 | 9.21183 | 9437 ft | 288 kts | 214° |
| 2026-04-26 19:38 | 48.94271 | 9.19578 | 9061 ft | 287 kts | 214° |
| 2026-04-26 19:38 | 48.92600 | 9.17946 | 8686 ft | 284 kts | 219° |
| 2026-04-26 19:39 | 48.91257 | 9.15799 | 8311 ft | 279 kts | 233° |
| 2026-04-26 19:39 | 48.90061 | 9.13498 | 8061 ft | 272 kts | 234° |
| 2026-04-26 19:39 | 48.88920 | 9.11273 | 7929 ft | 261 kts | 234° |
| 2026-04-26 19:39 | 48.87825 | 9.09138 | 7802 ft | 250 kts | 234° |
| 2026-04-26 19:40 | 48.86771 | 9.07084 | 7554 ft | 245 kts | 234° |
| 2026-04-26 19:40 | 48.85728 | 9.05045 | 7255 ft | 243 kts | 234° |
| 2026-04-26 19:40 | 48.84696 | 9.03025 | 6928 ft | 242 kts | 234° |
| 2026-04-26 19:40 | 48.83669 | 9.01008 | 6605 ft | 241 kts | 234° |
| 2026-04-26 19:41 | 48.82660 | 8.99020 | 6260 ft | 240 kts | 234° |
| 2026-04-26 19:41 | 48.81651 | 8.97022 | 6027 ft | 238 kts | 234° |
| 2026-04-26 19:41 | 48.80642 | 8.95022 | 6017 ft | 240 kts | 234° |
| 2026-04-26 19:41 | 48.80300 | 8.94343 | 6017 ft | 240 kts | 233° |
| 2026-04-26 19:42 | 48.78616 | 8.90990 | 6020 ft | 240 kts | 234° |
| 2026-04-26 19:42 | 48.77601 | 8.88974 | 6022 ft | 241 kts | 234° |
| 2026-04-26 19:42 | 48.76585 | 8.86959 | 6020 ft | 240 kts | 234° |
| 2026-04-26 19:42 | 48.75569 | 8.84947 | 6019 ft | 240 kts | 234° |
| 2026-04-26 19:43 | 48.74434 | 8.83098 | 5975 ft | 241 kts | 214° |
| 2026-04-26 19:43 | 48.72883 | 8.82207 | 5608 ft | 240 kts | 188° |
| 2026-04-26 19:43 | 48.71229 | 8.81909 | 5273 ft | 238 kts | 184° |
| 2026-04-26 19:43 | 48.69641 | 8.81682 | 5152 ft | 227 kts | 184° |
| 2026-04-26 19:44 | 48.68106 | 8.81470 | 5054 ft | 217 kts | 184° |
| 2026-04-26 19:44 | 48.67110 | 8.81331 | 5013 ft | 209 kts | 184° |
| 2026-04-26 19:44 | 48.65729 | 8.81131 | 5038 ft | 192 kts | 184° |
| 2026-04-26 19:44 | 48.64451 | 8.80939 | 5016 ft | 177 kts | 184° |
| 2026-04-26 19:45 | 48.63274 | 8.80756 | 5020 ft | 164 kts | 184° |
| 2026-04-26 19:45 | 48.62160 | 8.80806 | 5011 ft | 159 kts | 156° |
| 2026-04-26 19:45 | 48.61404 | 8.81915 | 5023 ft | 154 kts | 109° |
| 2026-04-26 19:45 | 48.61675 | 8.83927 | 5029 ft | 153 kts | 63° |
| 2026-04-26 19:46 | 48.61900 | 8.84951 | 5029 ft | 152 kts | 78° |
| 2026-04-26 19:46 | 48.62157 | 8.86475 | 5027 ft | 151 kts | 75° |
| 2026-04-26 19:46 | 48.62440 | 8.88004 | 5023 ft | 151 kts | 74° |
| 2026-04-26 19:46 | 48.62731 | 8.89535 | 5019 ft | 151 kts | 73° |
| 2026-04-26 19:47 | 48.63024 | 8.91066 | 5018 ft | 152 kts | 73° |
| 2026-04-26 19:47 | 48.63219 | 8.92079 | 4989 ft | 152 kts | 73° |
| 2026-04-26 19:47 | 48.63613 | 8.94123 | 4798 ft | 150 kts | 73° |
| 2026-04-26 19:47 | 48.63905 | 8.95637 | 4608 ft | 150 kts | 73° |
| 2026-04-26 19:48 | 48.64196 | 8.97149 | 4398 ft | 149 kts | 73° |
| 2026-04-26 19:48 | 48.64483 | 8.98643 | 4211 ft | 148 kts | 73° |
| 2026-04-26 19:48 | 48.64769 | 9.00128 | 4014 ft | 147 kts | 73° |
| 2026-04-26 19:48 | 48.65053 | 9.01607 | 3819 ft | 146 kts | 73° |
| 2026-04-26 19:49 | 48.65334 | 9.03070 | 3627 ft | 144 kts | 73° |
| 2026-04-26 19:49 | 48.65613 | 9.04523 | 3433 ft | 144 kts | 73° |
| 2026-04-26 19:49 | 48.65892 | 9.05974 | 3232 ft | 143 kts | 73° |
| 2026-04-26 19:49 | 48.66168 | 9.07419 | 3046 ft | 142 kts | 72° |
| 2026-04-26 19:50 | 48.66443 | 9.08852 | 2852 ft | 142 kts | 72° |
| 2026-04-26 19:50 | 48.66719 | 9.10294 | 2657 ft | 144 kts | 72° |
| 2026-04-26 19:50 | 48.67004 | 9.11788 | 2458 ft | 149 kts | 72° |
| 2026-04-26 19:50 | 48.67289 | 9.13281 | 2249 ft | 147 kts | 71° |
| 2026-04-26 19:51 | 48.67568 | 9.14768 | 2076 ft | 150 kts | 72° |
| 2026-04-26 19:51 | 48.67875 | 9.16355 | 1882 ft | 160 kts | 71° |
| 2026-04-26 19:51 | 48.68190 | 9.17992 | 1642 ft | 156 kts | 73° |
| 2026-04-26 19:51 | 48.68475 | 9.19494 | 1436 ft | 141 kts | 73° |
| 2026-04-26 19:52 | 48.68729 | 9.20833 | 1289 ft | 120 kts | 75° |
| 2026-04-26 19:52 | 48.68925 | 9.21842 | 1287 ft | 76 kts | 75° |
| 2026-04-26 19:52 | 48.69030 | 9.22416 | 1286 ft | 41 kts | 73° |
| 2026-04-26 19:52 | 48.69125 | 9.22534 | 1285 ft | 15 kts | 346° |
| 2026-04-26 19:53 | 48.69161 | 9.22516 | 1285 ft | 3 kts | 341° |
| 2026-04-26 19:53 | 48.69164 | 9.22514 | 1289 ft | 0 kts | 341° |
| 2026-04-26 19:53 | 48.69166 | 9.22514 | 1289 ft | 1 kts | 341° |
| 2026-04-26 19:53 | 48.69183 | 9.22505 | 1285 ft | 4 kts | 341° |
| 2026-04-26 19:54 | 48.69223 | 9.22487 | 1285 ft | 8 kts | 347° |
| 2026-04-26 19:54 | 48.69282 | 9.22454 | 1289 ft | 11 kts | 313° |
| 2026-04-26 19:54 | 48.69281 | 9.22364 | 1285 ft | 8 kts | 250° |
| 2026-04-26 19:54 | 48.69264 | 9.22279 | 1290 ft | 9 kts | 253° |
| 2026-04-26 19:55 | 48.69246 | 9.22189 | 1287 ft | 9 kts | 253° |
| 2026-04-26 19:55 | 48.69229 | 9.22097 | 1287 ft | 9 kts | 255° |
| 2026-04-26 19:55 | 48.69211 | 9.22002 | 1285 ft | 10 kts | 255° |
| 2026-04-26 19:55 | 48.69181 | 9.21842 | 1285 ft | 27 kts | 251° |
| 2026-04-26 19:56 | 48.69150 | 9.21678 | 1285 ft | 5 kts | 255° |
| 2026-04-26 19:56 | 48.69141 | 9.21626 | 1285 ft | 5 kts | 255° |
| 2026-04-26 19:56 | 48.69130 | 9.21573 | 1289 ft | 5 kts | 252° |
| 2026-04-26 19:56 | 48.69118 | 9.21516 | 1288 ft | 6 kts | 254° |
| 2026-04-26 19:57 | 48.69108 | 9.21455 | 1285 ft | 6 kts | 256° |
| 2026-04-26 19:57 | 48.69097 | 9.21390 | 1285 ft | 7 kts | 255° |
| 2026-04-26 19:57 | 48.69083 | 9.21320 | 1285 ft | 8 kts | 253° |
| 2026-04-26 19:57 | 48.69061 | 9.21210 | 1288 ft | 14 kts | 253° |
| 2026-04-26 19:58 | 48.69029 | 9.21045 | 1288 ft | 18 kts | 255° |
| 2026-04-26 19:58 | 48.68992 | 9.20867 | 1285 ft | 18 kts | 252° |
| 2026-04-26 19:58 | 48.68970 | 9.20740 | 1285 ft | 6 kts | 252° |
| 2026-04-26 19:58 | 48.68958 | 9.20675 | 1286 ft | 7 kts | 251° |
| 2026-04-26 19:59 | 48.68945 | 9.20609 | 1287 ft | 7 kts | 254° |
| 2026-04-26 19:59 | 48.68932 | 9.20537 | 1290 ft | 7 kts | 253° |
| 2026-04-26 19:59 | 48.68917 | 9.20458 | 1288 ft | 8 kts | 256° |
| 2026-04-26 19:59 | 48.68904 | 9.20377 | 1289 ft | 7 kts | 255° |
| 2026-04-26 20:00 | 48.68891 | 9.20307 | 1289 ft | 7 kts | 253° |
| 2026-04-26 20:00 | 48.68871 | 9.20216 | 1287 ft | 13 kts | 252° |
| 2026-04-26 20:00 | 48.68844 | 9.20059 | 1289 ft | 15 kts | 256° |
| 2026-04-26 20:00 | 48.68824 | 9.19923 | 1285 ft | 11 kts | 278° |
| 2026-04-26 20:01 | 48.68874 | 9.19870 | 1285 ft | 8 kts | 351° |
| 2026-04-26 20:01 | 48.68887 | 9.19817 | 1286 ft | 5 kts | 257° |
| 2026-04-26 20:01 | 48.68880 | 9.19772 | 1285 ft | 4 kts | 261° |
| 2026-04-26 20:01 | 48.68888 | 9.19747 | 1285 ft | 2 kts | 309° |
| 2026-04-26 20:02 | 48.68900 | 9.19739 | 1287 ft | 2 kts | 340° |
| 2026-04-26 20:02 | 48.68915 | 9.19732 | 1285 ft | 4 kts | 343° |
| 2026-04-26 20:02 | 48.68938 | 9.19722 | 1289 ft | 2 kts | 343° |
| 2026-04-26 20:02 | 48.68941 | 9.19720 | 1288 ft | 0 kts | 343° |